Racecast

Jade Johnson

Lincoln (S) (CA) · 11 · Compare head to head

Athlete rating 130.7 2016 TF season
Best race 130.7 TF
Races 85
Seasons 8 2010 — 2020
Rating scale ?
Speed rating — all races

Track & Field

TF speed rating

2020 TF

Lincoln (S) (CA) · Grade 11

Date Meet Event Result Place Rating Difficulty PR/SR Flags
2020-02-29 Viking Invitational 200m 28.14 6th · 2nd on team -0.022 SR
2020-02-29 Viking Invitational 100m 13.46 9th · 2nd on team -0.022 SR

2019 TF

Lincoln (S) (CA) · Grade 10

Date Meet Event Result Place Rating Difficulty PR/SR Flags
2019-05-10 CIF Sac-Joaquin Section Division I Championships 100m 12.93 21st · 2nd on team -0.025
2019-05-03 TCAL League Meet Finals 200m 26.7 6th · 3rd on team -0.025
2019-05-03 TCAL League Meet Finals 100m 13.03 11th · 4th on team -0.025
2019-05-03 TCAL League Meet Finals 200m 26.6 5th · 2nd on team -0.025
2019-05-03 TCAL League Meet Finals 100m 12.89 7th · 2nd on team -0.025 ★PR SR
2019-04-25 Lincoln @ St Mary's 400m 1:03.12 1st · 1st on team -0.015
2019-04-25 Lincoln @ St Mary's 100m 13.16 4th · 3rd on team -0.015
2019-04-04 Lincoln(S) @ Tracy 100m 12.95 2nd · 2nd on team -0.022
2019-04-04 Lincoln(S) @ Tracy 200m 26.56 1st · 1st on team -0.022 ★PR SR
2019-03-30 2019 Delta College Mustang HS Invitational 200m 26.7 4th · 2nd on team -0.016 PR SR
2019-03-30 2019 Delta College Mustang HS Invitational 400m 1:00.48 2nd · 1st on team -0.016 ★PR SR
2019-03-28 Lodi @ Lincoln 200m 27.24 1st · 1st on team -0.015
2019-03-22 County Clash VII 100m 13.25 5th · 1st on team -0.030
2019-03-14 Merrill West vs Lincoln 400m 1:02.85 1st · 1st on team -0.016 PR SR
2019-03-14 Merrill West vs Lincoln 200m 27.19 2nd · 1st on team -0.016 PR SR
2019-03-14 Merrill West vs Lincoln 100m 12.9 3rd · 2nd on team -0.016 PR SR
2019-03-08 San Joaquin County Meet 100m 13.61 5th · 2nd on team -0.022 PR SR
2019-02-23 Viking Invitational 100m 13.69 12th · 2nd on team -0.022 PR SR

2016 TF 130.7

Stockton Starz (CA) · Grade 5

Date Meet Event Result Place Rating Difficulty PR/SR Flags
2016-06-12 USATF Pacific Association Youth Championship 200m 28.81 28th · 1st on team -0.035 PR SR
2016-06-12 USATF Pacific Association Youth Championship 800m 2:51.38 27th · 2nd on team 130.7 -0.035 ★PR ★R SR RSR
2016-06-12 USATF Pacific Association Youth Championship 100m 13.91 37th · 1st on team -0.035 PR SR
2016-05-15 3M USATF Youth T&F Meet 100m 14.16 45th · 1st on team -0.028 PR SR
2016-05-15 3M USATF Youth T&F Meet 200m 29.25 36th · 1st on team -0.028 PR SR
2016-04-09 Contra Costa Cheetahs Invitational 100m 14.23 21st · 2nd on team -0.017 PR SR
2016-04-02 Sac Speed Factory USATF Youth T&F Meet 400m 1:11.17 41st · 1st on team -0.033 PR SR
2016-04-02 Sac Speed Factory USATF Youth T&F Meet 200m 29.76 26th · 1st on team -0.033 PR SR
2016-04-02 Sac Speed Factory USATF Youth T&F Meet 100m 14.25 27th · 1st on team -0.033 PR SR

2014 TF

Stockton Starz (CA) · Grade 3

Date Meet Event Result Place Rating Difficulty PR/SR Flags
2014-05-31 Pacific Association Championships (PAC) 100m 14.73 31st · 1st on team -0.024
2014-05-31 Pacific Association Championships (PAC) 200m 29.94 23rd · 2nd on team -0.024 PR SR
2014-05-18 3M Invitational 200m 31.8 18th · 3rd on team -0.028
2014-05-18 3M Invitational 100m 15.09 23rd · 2nd on team -0.028
2014-04-19 3rd Annual Shor/Sheppard Classic Meet 100m 14.7 9th · 1st on team -0.022
2014-04-12 Stocton Saints 100m 14.48 4th · 1st on team -0.027
2014-04-12 Stocton Saints 200m 30.54 5th · 1st on team -0.027 PR SR
2014-04-05 Sacramento Speed Showcase 200m 31.39 21st · 3rd on team -0.033 SR
2014-04-05 Sacramento Speed Showcase 100m 14.33 17th · 1st on team -0.033 PR SR
2014-03-22 RPM 100m 15.34 29th · 1st on team -0.012 SR

2013 TF

Stockton Starz (CA) · Grade 2

Date Meet Event Result Place Rating Difficulty PR/SR Flags
2013-06-08 Pacific Association Youth Championship (PAC) - 2-day meet 200m 31.55 14th · 2nd on team -0.024
2013-06-08 Pacific Association Youth Championship (PAC) - 2-day meet 100m 14.92 5th · 1st on team -0.024
2013-06-08 Pacific Association Youth Championship (PAC) - 2-day meet 100m 14.96 6th · 2nd on team -0.024
2013-06-08 Pacific Association Youth Championship (PAC) - 2-day meet 200m 31.18 11th · 1st on team -0.024
2013-05-18 3M Track Club 100m 14.83 14th · 2nd on team -0.028
2013-05-18 3M Track Club 100m 14.69 10th · 1st on team -0.028
2013-05-18 3M Track Club 200m 30.66 6th · 1st on team -0.028 PR SR
2013-05-04 Hercules / Running Rebels (2-day) 100m 14.69 11th · 1st on team -0.038
2013-05-04 Hercules / Running Rebels (2-day) 200m 31.03 5th · 1st on team -0.038 PR SR
2013-05-04 Hercules / Running Rebels (2-day) 100m 14.71 12th · 2nd on team -0.038
2013-04-27 Revolution Express Track Club 200m 32.86 9th · 2nd on team -0.024
2013-04-27 Revolution Express Track Club 100m 14.66 4th · 1st on team -0.024 PR SR
2013-04-20 Shor / Sheppard Classic 200m 31.65 10th · 1st on team -0.022 PR SR
2013-04-20 Shor / Sheppard Classic 100m 14.98 5th · 1st on team -0.022 PR SR
2013-04-06 Sacramento Speed Showcase 200m 33.65 15th · 2nd on team -0.031 SR
2013-04-06 Sacramento Speed Showcase 100m 15.22 7th · 1st on team -0.031
2013-03-30 Stockton Saints 100m 15.19 5th · 1st on team -0.016 PR SR

2012 TF

Stockton Starz (CA) · Grade 1

Date Meet Event Result Place Rating Difficulty PR/SR Flags
2012-06-09 Pacific Association Youth Championships 200m 33.04 22nd · 1st on team -0.034
2012-06-09 Pacific Association Youth Championships 100m 15.28 17th · 1st on team -0.034 PR SR
2012-05-19 3M Track Meet 100m 15.65 22nd · 1st on team -0.031
2012-05-19 3M Track Meet 200m 32.26 18th · 1st on team -0.031 PR SR
2012-05-05 Hercules Running Rebels / Top Pacers Invitational 200m 32.76 22nd · 1st on team -0.038 PR SR
2012-05-05 Hercules Running Rebels / Top Pacers Invitational 100m 15.32 21st · 1st on team -0.038 PR SR
2012-04-21 Shor / Sheppard Classic 400m 1:18.74 18th · 1st on team -0.022 PR SR
2012-04-21 Shor / Sheppard Classic 100m 15.47 11th · 1st on team -0.022 PR SR
2012-04-07 Phenom Elite 100m 15.84 20th · 1st on team -0.022 PR SR

2011 TF

Stockton Starz (CA) · Grade Gr

Date Meet Event Result Place Rating Difficulty PR/SR Flags
2011-06-11 PA USATF Youth Championships (PAC) 100m 16.63 15th · 2nd on team -0.028
2011-06-11 PA USATF Youth Championships (PAC) 200m 36.25 10th · 1st on team -0.028
2011-06-11 PA USATF Youth Championships (PAC) 200m 36.91 13th · 3rd on team -0.028
2011-05-21 Hercules Running Rebels & Top Pacers Track Club Invitational 200m 35.55 4th · 1st on team -0.038 PR SR
2011-05-21 Hercules Running Rebels & Top Pacers Track Club Invitational 100m 16.62 16th · 4th on team -0.038 PR SR
2011-05-21 Hercules Running Rebels & Top Pacers Track Club Invitational 100m 16.46 12th · 2nd on team -0.038 PR SR
2011-05-14 3M Track Club Invitational 100m 16.85 8th · 1st on team -0.028 PR SR
2011-05-14 3M Track Club Invitational 200m 39.39 9th · 1st on team -0.028
2011-05-14 3M Track Club Invitational 100m 16.93 10th · 3rd on team -0.028
2011-04-15 CA Track Club Invitational Meet 200m 37.8 13th · 1st on team -0.033 PR SR
2011-04-15 CA Track Club Invitational Meet 100m 17.39 12th · 2nd on team -0.033 SR

2010 TF

Stockton Starz (CA) · Grade -

Date Meet Event Result Place Rating Difficulty PR/SR Flags
2010-05-22 Central Valley Roadrunners lj 6-07.25 -0.024
2010-05-22 Central Valley Roadrunners 100m 17.49 6th · 2nd on team -0.024
2010-05-01 UMOJA lj 6-01.00 -0.016
2010-05-01 UMOJA 200m 39.15 29th · 1st on team -0.016 PR SR
2010-05-01 UMOJA 100m 17.67 32nd · 1st on team -0.016
2010-04-17 Roseville PAL Express Track Club lj 7-02.00 -0.024
2010-04-17 Roseville PAL Express Track Club 100m 17.1 7th · 2nd on team -0.024 PR SR
2010-03-27 Race results → 200m 43.2 15th · 2nd on team PR SR
2010-03-27 Race results → 100m 18.8 21st · 2nd on team PR SR